createdAt,value
2022-10-18T00:01:01.356Z,102230.97
2022-10-18T00:03:28.874Z,102247.78
2022-10-18T00:05:56.505Z,102243.56
2022-10-18T00:08:24.116Z,102249.16
2022-10-18T00:10:51.598Z,102243.56
2022-10-18T00:13:18.984Z,102231.72
2022-10-18T00:16:10.096Z,102244.41
2022-10-18T00:18:37.259Z,102225.50
2022-10-18T00:21:12.735Z,102253.88
2022-10-18T00:23:40.269Z,102238.75
2022-10-18T00:26:11.682Z,102238.16
2022-10-18T00:28:39.849Z,102222.47
2022-10-18T00:31:23.572Z,102207.25
2022-10-18T00:33:58.500Z,102210.44
2022-10-18T00:36:27.327Z,102220.56
2022-10-18T00:38:55.020Z,102216.69
2022-10-18T00:41:25.636Z,102214.16
2022-10-18T00:44:28.076Z,102214.09
2022-10-18T00:47:07.159Z,102205.91
2022-10-18T00:49:49.196Z,102210.03
2022-10-18T00:52:43.039Z,102199.00
2022-10-18T00:55:10.691Z,102201.31
2022-10-18T00:57:40.283Z,102188.69
2022-10-18T01:00:10.510Z,102203.88
2022-10-18T01:02:40.282Z,102215.34
2022-10-18T01:05:08.271Z,102205.69
2022-10-18T01:07:59.929Z,102214.59
2022-10-18T01:11:01.095Z,102232.22
2022-10-18T01:13:50.060Z,102229.91
2022-10-18T01:16:38.348Z,102234.47
2022-10-18T01:19:39.048Z,102234.56
2022-10-18T01:22:14.006Z,102229.16
2022-10-18T01:24:50.249Z,102214.50
2022-10-18T01:27:49.212Z,102227.97
2022-10-18T01:30:58.581Z,102213.88
2022-10-18T01:33:43.989Z,102230.69
2022-10-18T01:36:26.237Z,102229.63
2022-10-18T01:38:57.313Z,102228.13
2022-10-18T01:41:25.905Z,102229.47
2022-10-18T01:44:02.387Z,102226.56
2022-10-18T01:46:30.119Z,102226.06
2022-10-18T01:48:58.476Z,102223.53
2022-10-18T01:51:28.043Z,102213.75
2022-10-18T01:53:55.503Z,102206.22
2022-10-18T01:56:50.492Z,102201.09
2022-10-18T01:59:55.096Z,102215.13
2022-10-18T02:02:43.765Z,102215.63
2022-10-18T02:05:28.929Z,102213.44
2022-10-18T02:08:22.401Z,102219.00
2022-10-18T02:10:53.943Z,102213.25
2022-10-18T02:13:22.894Z,102213.25
2022-10-18T02:16:19.605Z,102223.88
2022-10-18T02:18:55.436Z,102221.50
2022-10-18T02:21:24.782Z,102221.94
2022-10-18T02:23:55.578Z,102232.00
2022-10-18T02:26:22.976Z,102216.88
2022-10-18T02:28:50.423Z,102225.81
2022-10-18T02:31:31.303Z,102234.31
2022-10-18T02:33:59.264Z,102238.66
2022-10-18T02:36:39.375Z,102225.22
2022-10-18T02:39:16.798Z,102231.03
2022-10-18T02:41:44.335Z,102219.72
2022-10-18T02:44:12.789Z,102215.97
2022-10-18T02:46:40.579Z,102226.00
2022-10-18T02:49:07.846Z,102222.97
2022-10-18T02:51:35.709Z,102232.19
2022-10-18T02:54:02.951Z,102227.34
2022-10-18T02:56:30.281Z,102224.81
2022-10-18T02:58:57.504Z,102224.81
2022-10-18T03:01:24.684Z,102224.81
2022-10-18T03:03:52.070Z,102229.75
2022-10-18T03:06:19.436Z,102209.94
2022-10-18T03:08:46.774Z,102211.88
2022-10-18T03:11:14.419Z,102222.03
2022-10-18T03:13:42.155Z,102193.28
2022-10-18T03:16:10.523Z,102201.75
2022-10-18T03:18:37.752Z,102214.09
2022-10-18T03:21:08.496Z,102222.91
2022-10-18T03:23:36.463Z,102233.44
2022-10-18T03:26:04.727Z,102222.56
2022-10-18T03:28:32.393Z,102224.72
2022-10-18T03:31:05.956Z,102224.13
2022-10-18T03:33:33.304Z,102204.94
2022-10-18T03:36:00.551Z,102222.22
2022-10-18T03:38:28.270Z,102228.63
2022-10-18T03:40:55.894Z,102236.38
2022-10-18T03:43:23.508Z,102232.88
2022-10-18T03:45:50.949Z,102224.41
2022-10-18T03:48:18.444Z,102232.88
2022-10-18T03:50:45.651Z,102238.31
2022-10-18T03:53:13.021Z,102239.03
2022-10-18T03:55:40.680Z,102236.63
2022-10-18T03:58:08.125Z,102235.91
2022-10-18T04:00:35.688Z,102232.16
2022-10-18T04:03:04.264Z,102240.88
2022-10-18T04:05:31.642Z,102242.66
2022-10-18T04:08:00.495Z,102236.25
2022-10-18T04:10:29.200Z,102236.50
2022-10-18T04:12:57.461Z,102229.00
2022-10-18T04:15:25.644Z,102225.88
2022-10-18T04:17:53.028Z,102231.78
2022-10-18T04:20:20.138Z,102236.38
2022-10-18T04:22:51.204Z,102238.94
2022-10-18T04:25:19.226Z,102228.28
2022-10-18T04:27:46.408Z,102234.47
2022-10-18T04:30:13.486Z,102234.69
2022-10-18T04:32:40.833Z,102248.44
2022-10-18T04:35:08.294Z,102234.69
2022-10-18T04:37:36.062Z,102246.53
2022-10-18T04:40:04.465Z,102249.81
2022-10-18T04:42:31.750Z,102243.03
2022-10-18T04:44:58.830Z,102239.41
2022-10-18T04:47:25.939Z,102228.28
2022-10-18T04:49:53.155Z,102230.84
2022-10-18T04:52:20.356Z,102239.03
2022-10-18T04:54:47.721Z,102242.16
2022-10-18T04:57:14.808Z,102243.88
2022-10-18T04:59:43.320Z,102253.19
2022-10-18T05:02:11.482Z,102222.25
2022-10-18T05:04:38.690Z,102235.75
2022-10-18T05:07:07.540Z,102251.97
2022-10-18T05:09:34.980Z,102249.53
2022-10-18T05:12:02.255Z,102253.28
2022-10-18T05:14:30.844Z,102253.88
2022-10-18T05:16:59.204Z,102251.47
2022-10-18T05:19:27.778Z,102261.94
2022-10-18T05:21:54.912Z,102247.34
2022-10-18T05:24:25.455Z,102252.50
2022-10-18T05:26:55.069Z,102242.59
2022-10-18T05:29:24.134Z,102257.34
2022-10-18T05:31:51.926Z,102251.28
2022-10-18T05:34:20.784Z,102248.69
2022-10-18T05:36:49.983Z,102250.03
2022-10-18T05:39:17.076Z,102250.22
2022-10-18T05:41:44.162Z,102253.47
2022-10-18T05:44:11.477Z,102244.94
2022-10-18T05:46:38.780Z,102250.47
2022-10-18T05:49:06.106Z,102244.41
2022-10-18T05:51:33.406Z,102264.03
2022-10-18T05:54:00.959Z,102245.59
2022-10-18T05:56:28.357Z,102250.44
2022-10-18T05:58:55.501Z,102248.63
2022-10-18T06:01:22.937Z,102249.66
2022-10-18T06:03:50.867Z,102254.22
2022-10-18T06:06:18.048Z,102254.88
2022-10-18T06:08:45.237Z,102246.50
2022-10-18T06:11:15.089Z,102249.13
2022-10-18T06:13:46.877Z,102246.22
2022-10-18T06:16:16.512Z,102255.84
2022-10-18T06:18:43.901Z,102259.34
2022-10-18T06:21:11.168Z,102259.44
2022-10-18T06:23:38.412Z,102253.41
2022-10-18T06:26:07.997Z,102259.28
2022-10-18T06:28:36.659Z,102248.97
2022-10-18T06:31:05.222Z,102254.13
2022-10-18T06:33:34.637Z,102248.16
2022-10-18T06:36:15.019Z,102241.91
2022-10-18T06:38:45.013Z,102251.84
2022-10-18T06:41:12.456Z,102248.31
2022-10-18T06:43:40.818Z,102222.63
2022-10-18T06:46:08.994Z,102236.16
2022-10-18T06:48:38.836Z,102236.53
2022-10-18T06:51:08.206Z,102231.94
2022-10-18T06:53:44.247Z,102230.56
2022-10-18T06:56:21.076Z,102218.53
2022-10-18T06:58:48.316Z,102218.38
2022-10-18T07:01:18.197Z,102228.88
2022-10-18T07:03:47.466Z,102222.44
2022-10-18T07:06:17.997Z,102218.88
2022-10-18T07:08:46.120Z,102216.97
2022-10-18T07:11:19.774Z,102201.31
2022-10-18T07:13:47.094Z,102207.25
2022-10-18T07:16:18.415Z,102209.19
2022-10-18T07:18:51.267Z,102222.69
2022-10-18T07:21:23.895Z,102207.31
2022-10-18T07:23:52.290Z,102202.53
2022-10-18T07:26:33.420Z,102204.81
2022-10-18T07:29:05.372Z,102201.44
2022-10-18T07:31:33.526Z,102195.28
2022-10-18T07:34:01.331Z,102191.63
2022-10-18T07:36:28.563Z,102186.03
2022-10-18T07:38:57.572Z,102197.53
2022-10-18T07:41:24.999Z,102189.69
2022-10-18T07:43:53.325Z,102190.53
2022-10-18T07:46:22.477Z,102182.41
2022-10-18T07:48:50.410Z,102174.56
2022-10-18T07:51:18.989Z,102182.69
2022-10-18T07:53:46.550Z,102157.13
2022-10-18T07:56:16.755Z,102157.97
2022-10-18T07:58:45.416Z,102165.78
2022-10-18T08:01:13.498Z,102169.06
2022-10-18T08:03:43.743Z,102171.03
2022-10-18T08:06:13.374Z,102167.06
2022-10-18T08:08:41.423Z,102158.38
2022-10-18T08:11:15.160Z,102139.19
2022-10-18T08:13:43.171Z,102156.75
2022-10-18T08:16:13.733Z,102159.88
2022-10-18T08:18:41.873Z,102160.44
2022-10-18T08:21:10.633Z,102158.09
2022-10-18T08:23:38.623Z,102149.94
2022-10-18T08:26:08.812Z,102149.31
2022-10-18T08:28:38.062Z,102137.19
2022-10-18T08:31:07.489Z,102137.66
2022-10-18T08:33:36.350Z,102130.78
2022-10-18T08:36:06.675Z,102135.19
2022-10-18T08:38:36.244Z,102118.31
2022-10-18T08:41:36.247Z,102122.41
2022-10-18T08:44:07.436Z,102127.44
2022-10-18T08:46:38.247Z,102111.34
2022-10-18T08:49:06.931Z,102103.41
2022-10-18T08:51:46.885Z,102110.38
2022-10-18T08:54:19.363Z,102107.22
2022-10-18T08:56:57.258Z,102113.88
2022-10-18T08:59:25.598Z,102109.59
2022-10-18T09:02:17.877Z,102113.84
2022-10-18T09:05:03.761Z,102108.09
2022-10-18T09:07:37.130Z,102099.63
2022-10-18T09:10:30.008Z,102089.59
2022-10-18T09:13:15.781Z,102082.50
2022-10-18T09:15:55.805Z,102082.81
2022-10-18T09:19:02.839Z,102077.50
2022-10-18T09:22:15.033Z,102072.00
2022-10-18T09:25:29.033Z,102059.88
2022-10-18T09:28:09.099Z,102064.38
2022-10-18T09:31:16.907Z,102043.50
2022-10-18T09:34:02.700Z,102052.19
2022-10-18T09:36:36.803Z,102057.97
2022-10-18T09:39:17.028Z,102047.97
2022-10-18T09:41:49.205Z,102039.69
2022-10-18T09:44:22.664Z,102040.31
2022-10-18T09:47:03.773Z,102039.25
2022-10-18T09:49:41.809Z,102045.22
2022-10-18T09:52:16.561Z,102033.84
2022-10-18T09:54:51.174Z,102026.03
2022-10-18T10:01:33.872Z,102013.38
2022-10-18T10:04:01.543Z,102009.72
2022-10-18T10:08:04.671Z,102019.66
2022-10-18T10:10:33.068Z,102011.47
2022-10-18T10:13:28.269Z,102005.22
2022-10-18T10:15:57.979Z,102005.88
2022-10-18T10:18:30.300Z,101993.00
2022-10-18T10:21:05.851Z,101988.41
2022-10-18T10:23:46.825Z,101994.59
2022-10-18T10:26:25.100Z,101997.19
2022-10-18T10:28:52.626Z,101972.31
2022-10-18T10:31:27.360Z,101976.75
2022-10-18T10:34:07.963Z,101976.22
2022-10-18T10:36:46.358Z,101965.44
2022-10-18T10:39:19.702Z,101966.81
2022-10-18T10:41:50.300Z,101968.06
2022-10-18T10:44:20.388Z,101959.41
2022-10-18T10:46:50.850Z,101960.25
2022-10-18T10:49:40.820Z,101941.50
2022-10-18T10:52:28.833Z,101941.09
2022-10-18T10:55:16.723Z,101931.50
2022-10-18T10:57:51.796Z,101938.09
2022-10-18T11:00:34.474Z,101936.81
2022-10-18T11:03:33.818Z,101933.06
2022-10-18T11:06:02.404Z,101928.25
2022-10-18T11:08:40.542Z,101921.78
2022-10-18T11:11:28.032Z,101935.78
2022-10-18T11:14:26.304Z,101930.22
2022-10-18T11:17:45.851Z,101920.91
2022-10-18T11:20:41.803Z,101916.28
2022-10-18T11:23:13.924Z,101908.13
2022-10-18T11:25:58.926Z,101912.84
2022-10-18T11:28:45.269Z,101921.09
2022-10-18T11:31:23.395Z,101918.81
2022-10-18T11:34:16.095Z,101917.97
2022-10-18T11:36:56.221Z,101914.09
2022-10-18T11:39:36.448Z,101906.56
2022-10-18T11:42:27.704Z,101893.91
2022-10-18T11:45:15.408Z,101898.56
2022-10-18T11:47:59.140Z,101891.78
2022-10-18T11:50:43.578Z,101891.97
2022-10-18T11:53:52.004Z,101895.34
2022-10-18T11:56:30.366Z,101883.63
2022-10-18T11:59:22.710Z,101873.66
2022-10-18T12:01:56.100Z,101883.63
2022-10-18T12:04:49.008Z,101880.22
2022-10-18T12:07:39.959Z,101874.75
2022-10-18T12:10:09.910Z,101869.31
2022-10-18T12:12:53.453Z,101878.09
2022-10-18T12:15:24.362Z,101865.88
2022-10-18T12:17:56.209Z,101861.44
2022-10-18T12:20:30.396Z,101855.41
2022-10-18T12:23:04.120Z,101873.78
2022-10-18T12:25:38.755Z,101863.44
2022-10-18T12:28:09.008Z,101872.88
2022-10-18T12:30:54.642Z,101860.00
2022-10-18T12:33:28.682Z,101865.13
2022-10-18T12:36:02.315Z,101856.69
2022-10-18T12:38:34.715Z,101852.91
2022-10-18T12:41:03.618Z,101839.59
2022-10-18T12:43:36.946Z,101844.50
2022-10-18T12:46:12.261Z,101844.94
2022-10-18T12:48:45.721Z,101843.66
2022-10-18T12:51:16.552Z,101838.44
2022-10-18T12:53:46.468Z,101840.97
2022-10-18T12:56:28.891Z,101835.13
2022-10-18T12:59:14.508Z,101831.50
2022-10-18T13:01:50.971Z,101829.25
2022-10-18T13:04:33.844Z,101830.72
2022-10-18T13:07:32.613Z,101813.69
2022-10-18T13:10:13.100Z,101820.19
2022-10-18T13:12:41.078Z,101815.28
2022-10-18T13:15:36.236Z,101819.91
2022-10-18T13:18:22.549Z,101812.19
2022-10-18T13:21:18.715Z,101808.13
2022-10-18T13:24:19.897Z,101796.13
2022-10-18T13:30:11.912Z,101798.66
2022-10-18T13:32:54.167Z,101788.94
2022-10-18T13:35:55.801Z,101790.50
2022-10-18T13:38:47.494Z,101782.91
2022-10-18T13:41:16.648Z,101781.25
2022-10-18T13:43:53.392Z,101786.06
2022-10-18T13:46:32.916Z,101781.25
2022-10-18T13:49:31.982Z,101777.06
2022-10-18T13:52:17.541Z,101774.81
2022-10-18T13:55:03.456Z,101764.59
2022-10-18T13:57:54.207Z,101756.47
2022-10-18T14:00:33.123Z,101756.88
2022-10-18T14:03:37.919Z,101757.03
2022-10-18T14:06:10.690Z,101751.25
2022-10-18T14:08:56.882Z,101754.59
2022-10-18T14:11:46.245Z,101749.16
2022-10-18T14:14:38.962Z,101740.63
2022-10-18T14:17:26.801Z,101738.09
2022-10-18T14:20:29.445Z,101740.19
2022-10-18T14:23:18.970Z,101734.78
2022-10-18T14:25:46.883Z,101713.25
2022-10-18T14:28:31.557Z,101719.31
2022-10-18T14:31:16.027Z,101712.44
2022-10-18T14:33:57.096Z,101715.97
2022-10-18T14:36:27.957Z,101683.81
2022-10-18T14:39:00.772Z,101708.97
2022-10-18T14:41:29.174Z,101701.75
2022-10-18T14:44:11.684Z,101708.66
2022-10-18T14:47:03.165Z,101700.81
2022-10-18T14:49:31.066Z,101706.13
2022-10-18T14:52:00.473Z,101696.31
2022-10-18T14:54:38.355Z,101705.00
2022-10-18T14:57:07.232Z,101682.34
2022-10-18T14:59:45.216Z,101699.13
2022-10-18T15:02:21.896Z,101685.44
2022-10-18T15:04:58.172Z,101700.50
2022-10-18T15:07:28.922Z,101696.00
2022-10-18T15:09:59.467Z,101688.78
2022-10-18T15:12:29.624Z,101695.47
2022-10-18T15:15:01.536Z,101689.09
2022-10-18T15:17:31.885Z,101678.16
2022-10-18T15:20:17.874Z,101676.47
2022-10-18T15:22:46.944Z,101663.94
2022-10-18T15:25:18.403Z,101688.28
2022-10-18T15:27:52.162Z,101682.53
2022-10-18T15:30:25.268Z,101654.59
2022-10-18T15:32:55.925Z,101678.88
2022-10-18T15:35:29.238Z,101675.19
2022-10-18T15:37:58.354Z,101679.72
2022-10-18T15:40:28.861Z,101674.16
2022-10-18T15:42:58.424Z,101678.09
2022-10-18T15:45:25.826Z,101672.69
2022-10-18T15:48:11.506Z,101678.28
2022-10-18T15:50:43.108Z,101680.00
2022-10-18T15:53:24.373Z,101688.75
2022-10-18T15:55:52.863Z,101684.22
2022-10-18T15:58:32.211Z,101677.84
2022-10-18T16:01:01.418Z,101673.97
2022-10-18T16:03:29.072Z,101660.25
2022-10-18T16:06:04.014Z,101675.81
2022-10-18T16:08:32.493Z,101679.16
2022-10-18T16:11:00.009Z,101681.44
2022-10-18T16:13:27.817Z,101684.13
2022-10-18T16:15:56.319Z,101679.44
2022-10-18T16:18:25.319Z,101666.50
2022-10-18T16:20:53.275Z,101654.38
2022-10-18T16:23:22.199Z,101681.47
2022-10-18T16:25:49.877Z,101670.59
2022-10-18T16:28:22.882Z,101679.69
2022-10-18T16:30:58.935Z,101649.25
2022-10-18T16:33:27.217Z,101675.34
2022-10-18T16:35:54.561Z,101682.03
2022-10-18T16:38:48.213Z,101672.44
2022-10-18T16:41:16.214Z,101665.00
2022-10-18T16:43:45.324Z,101657.50
2022-10-18T16:46:19.557Z,101654.22
2022-10-18T16:48:49.260Z,101654.69
2022-10-18T16:51:17.090Z,101653.47
2022-10-18T16:53:44.501Z,101657.72
2022-10-18T16:56:21.171Z,101654.59
2022-10-18T16:58:49.415Z,101653.22
2022-10-18T17:01:21.122Z,101646.47
2022-10-18T17:03:49.097Z,101649.34
2022-10-18T17:06:22.576Z,101635.47
2022-10-18T17:08:51.019Z,101626.16
2022-10-18T17:11:19.841Z,101638.81
2022-10-18T17:13:47.783Z,101632.38
2022-10-18T17:18:58.542Z,101631.22
2022-10-18T17:21:28.027Z,101625.31
2022-10-18T17:23:55.537Z,101603.50
2022-10-18T17:26:31.446Z,101622.25
2022-10-18T17:29:02.165Z,101605.72
2022-10-18T17:31:30.829Z,101605.06
2022-10-18T17:33:58.888Z,101601.44
2022-10-18T17:36:28.450Z,101603.63
2022-10-18T17:38:56.545Z,101595.53
2022-10-18T17:41:24.007Z,101588.63
2022-10-18T17:43:51.223Z,101583.41
2022-10-18T17:46:19.904Z,101574.44
2022-10-18T17:48:47.619Z,101574.56
2022-10-18T17:51:17.376Z,101589.03
2022-10-18T17:53:45.267Z,101582.69
2022-10-18T17:56:13.540Z,101586.50
2022-10-18T17:58:43.739Z,101583.41
2022-10-18T18:01:14.978Z,101581.56
2022-10-18T18:03:43.007Z,101566.84
2022-10-18T18:06:19.649Z,101568.22
2022-10-18T18:08:48.210Z,101564.72
2022-10-18T18:11:17.131Z,101565.25
2022-10-18T18:13:44.510Z,101568.94
2022-10-18T18:16:23.735Z,101569.19
2022-10-18T18:18:57.186Z,101562.38
2022-10-18T18:21:25.820Z,101550.81
2022-10-18T18:23:53.702Z,101562.06
2022-10-18T18:26:22.686Z,101566.75
2022-10-18T18:28:50.179Z,101552.19
2022-10-18T18:31:20.328Z,101562.13
2022-10-18T18:33:47.527Z,101570.88
2022-10-18T18:36:14.733Z,101545.50
2022-10-18T18:38:45.043Z,101547.84
2022-10-18T18:41:17.987Z,101539.50
2022-10-18T18:43:49.980Z,101549.81
2022-10-18T18:46:17.186Z,101550.97
2022-10-18T18:48:45.317Z,101550.34
2022-10-18T18:51:15.314Z,101550.41
2022-10-18T18:53:44.861Z,101545.63
2022-10-18T18:56:16.044Z,101540.31
2022-10-18T18:58:46.341Z,101538.34
2022-10-18T19:01:17.620Z,101542.22
2022-10-18T19:03:46.740Z,101504.03
2022-10-18T19:06:16.979Z,101542.22
2022-10-18T19:08:45.370Z,101533.34
2022-10-18T19:11:15.350Z,101523.47
2022-10-18T19:13:43.310Z,101523.94
2022-10-18T19:16:18.300Z,101520.94
2022-10-18T19:18:53.443Z,101530.75
2022-10-18T19:21:21.781Z,101526.91
2022-10-18T19:23:50.580Z,101523.13
2022-10-18T19:26:32.339Z,101522.00
2022-10-18T19:29:24.772Z,101516.25
2022-10-18T19:31:54.669Z,101504.72
2022-10-18T19:34:23.748Z,101509.63
2022-10-18T19:36:54.420Z,101493.34
2022-10-18T19:39:32.376Z,101494.00
2022-10-18T19:42:03.424Z,101498.66
2022-10-18T19:44:33.934Z,101481.66
2022-10-18T19:47:02.787Z,101476.56
2022-10-18T19:49:30.155Z,101465.41
2022-10-18T19:51:57.660Z,101478.78
2022-10-18T19:54:25.287Z,101477.47
2022-10-18T19:56:52.920Z,101450.09
2022-10-18T19:59:20.311Z,101459.41
2022-10-18T20:01:48.497Z,101473.75
2022-10-18T20:04:16.422Z,101460.69
2022-10-18T20:06:44.158Z,101459.34
2022-10-18T20:09:16.277Z,101458.81
2022-10-18T20:11:47.032Z,101440.00
2022-10-18T20:14:14.732Z,101443.63
2022-10-18T20:16:41.969Z,101444.06
2022-10-18T20:19:09.760Z,101441.53
2022-10-18T20:21:37.305Z,101440.41
2022-10-18T20:24:05.778Z,101422.22
2022-10-18T20:26:36.056Z,101404.69
2022-10-18T20:29:04.256Z,101412.38
2022-10-18T20:31:34.937Z,101410.09
2022-10-18T20:34:04.851Z,101408.38
2022-10-18T20:36:33.013Z,101403.81
2022-10-18T20:39:00.631Z,101395.41
2022-10-18T20:41:41.316Z,101378.09
2022-10-18T20:44:13.557Z,101390.84
2022-10-18T20:46:41.167Z,101392.50
2022-10-18T20:49:10.425Z,101376.31
2022-10-18T20:51:37.726Z,101368.72
2022-10-18T20:54:07.418Z,101363.72
2022-10-18T20:56:36.650Z,101374.00
2022-10-18T20:59:06.362Z,101368.38
2022-10-18T21:01:35.204Z,101365.59
2022-10-18T21:04:04.749Z,101363.00
2022-10-18T21:06:34.463Z,101349.97
2022-10-18T21:09:05.467Z,101353.31
2022-10-18T21:11:37.730Z,101341.91
2022-10-18T21:14:06.053Z,101354.75
2022-10-18T21:16:36.109Z,101344.91
2022-10-18T21:19:10.184Z,101337.94
2022-10-18T21:21:37.804Z,101330.34
2022-10-18T21:24:07.708Z,101316.91
2022-10-18T21:26:35.924Z,101316.22
2022-10-18T21:29:04.985Z,101317.91
2022-10-18T21:31:39.324Z,101303.44
2022-10-18T21:34:17.965Z,101306.91
2022-10-18T21:36:47.543Z,101315.31
2022-10-18T21:39:17.933Z,101303.19
2022-10-18T21:41:45.645Z,101278.19
2022-10-18T21:44:13.297Z,101257.53
2022-10-18T21:46:43.131Z,101289.84
2022-10-18T21:49:11.336Z,101295.63
2022-10-18T21:51:38.938Z,101282.66
2022-10-18T21:54:14.963Z,101278.31
2022-10-18T21:56:42.454Z,101258.38
2022-10-18T21:59:12.847Z,101277.91
2022-10-18T22:01:40.796Z,101277.91
2022-10-18T22:04:22.153Z,101258.91
2022-10-18T22:06:50.125Z,101267.38
2022-10-18T22:09:17.326Z,101252.94
2022-10-18T22:11:49.193Z,101258.97
2022-10-18T22:14:16.858Z,101244.06
2022-10-18T22:16:44.009Z,101255.41
2022-10-18T22:19:11.514Z,101257.47
2022-10-18T22:21:38.997Z,101247.53
2022-10-18T22:24:09.129Z,101264.28
2022-10-18T22:26:39.058Z,101262.13
2022-10-18T22:29:10.489Z,101262.13
2022-10-18T22:31:40.147Z,101254.13
2022-10-18T22:34:11.587Z,101259.97
2022-10-18T22:36:39.118Z,101254.41
2022-10-18T22:39:07.066Z,101254.47
2022-10-18T22:41:35.270Z,101250.78
2022-10-18T22:44:03.851Z,101240.00
2022-10-18T22:46:33.054Z,101245.59
2022-10-18T22:49:00.429Z,101249.63
2022-10-18T22:51:28.068Z,101239.06
2022-10-18T22:53:55.503Z,101239.97
2022-10-18T22:56:24.472Z,101205.25
2022-10-18T22:58:53.459Z,101232.28
2022-10-18T23:01:23.184Z,101220.50
2022-10-18T23:03:55.275Z,101205.19
2022-10-18T23:06:25.754Z,101215.78
2022-10-18T23:08:54.491Z,101222.03
2022-10-18T23:11:21.832Z,101207.50
2022-10-18T23:13:49.489Z,101215.38
2022-10-18T23:16:17.676Z,101212.06
2022-10-18T23:18:48.773Z,101191.44
2022-10-18T23:21:18.757Z,101201.66
2022-10-18T23:23:45.975Z,101196.78
2022-10-18T23:26:19.718Z,101188.28
2022-10-18T23:28:49.544Z,101188.78
2022-10-18T23:31:21.110Z,101188.47
2022-10-18T23:33:50.052Z,101188.34
2022-10-18T23:36:20.212Z,101184.41
2022-10-18T23:38:47.595Z,101183.22
2022-10-18T23:41:16.420Z,101178.19
2022-10-18T23:43:46.594Z,101174.50
2022-10-18T23:46:14.956Z,101168.25
2022-10-18T23:48:42.270Z,101158.63
2022-10-18T23:51:10.038Z,101160.94
2022-10-18T23:53:38.329Z,101152.56
2022-10-18T23:56:10.674Z,101148.75
2022-10-18T23:58:38.812Z,101139.09
